createdAt,value
2022-11-16T00:02:01.051Z,99633.85
2022-11-16T00:04:49.134Z,99631.73
2022-11-16T00:07:37.107Z,99637.79
2022-11-16T00:10:24.919Z,99640.17
2022-11-16T00:13:12.485Z,99643.45
2022-11-16T00:16:00.512Z,99643.77
2022-11-16T00:18:48.180Z,99639.95
2022-11-16T00:21:35.864Z,99636.00
2022-11-16T00:24:24.163Z,99632.77
2022-11-16T00:27:12.144Z,99633.67
2022-11-16T00:29:59.891Z,99634.23
2022-11-16T00:32:47.517Z,99633.72
2022-11-16T00:35:39.876Z,99635.23
2022-11-16T00:38:27.702Z,99634.69
2022-11-16T00:41:15.511Z,99635.52
2022-11-16T00:44:02.861Z,99641.91
2022-11-16T00:46:50.747Z,99643.21
2022-11-16T00:49:38.707Z,99646.57
2022-11-16T00:52:26.281Z,99648.62
2022-11-16T00:55:14.730Z,99653.52
2022-11-16T00:58:02.189Z,99657.55
2022-11-16T01:00:50.701Z,99661.20
2022-11-16T01:03:41.271Z,99669.67
2022-11-16T01:06:29.457Z,99658.74
2022-11-16T01:09:17.147Z,99661.60
2022-11-16T01:12:09.876Z,99662.75
2022-11-16T01:14:58.666Z,99665.15
2022-11-16T01:17:47.071Z,99663.63
2022-11-16T01:20:34.503Z,99666.55
2022-11-16T01:23:22.103Z,99667.31
2022-11-16T01:26:09.943Z,99662.67
2022-11-16T01:28:59.891Z,99661.27
2022-11-16T01:31:50.629Z,99655.47
2022-11-16T01:34:38.465Z,99649.48
2022-11-16T01:37:42.385Z,99646.88
2022-11-16T01:40:30.194Z,99642.26
2022-11-16T01:43:27.294Z,99636.04
2022-11-16T01:46:21.873Z,99633.27
2022-11-16T01:49:19.644Z,99635.11
2022-11-16T01:52:13.421Z,99628.55
2022-11-16T01:55:01.532Z,99630.46
2022-11-16T01:57:56.609Z,99627.08
2022-11-16T02:00:45.042Z,99633.82
2022-11-16T02:04:05.057Z,99633.91
2022-11-16T02:06:53.010Z,99635.55
2022-11-16T02:10:08.676Z,99633.80
2022-11-16T02:13:34.929Z,99632.39
2022-11-16T02:16:56.208Z,99629.06
2022-11-16T02:20:24.412Z,99628.75
2022-11-16T02:23:39.365Z,99633.09
2022-11-16T02:26:59.247Z,99631.20
2022-11-16T02:29:53.580Z,99625.18
2022-11-16T02:33:00.703Z,99621.94
2022-11-16T02:35:57.132Z,99615.00
2022-11-16T02:38:54.367Z,99611.10
2022-11-16T02:41:45.862Z,99616.05
2022-11-16T02:44:40.288Z,99615.48
2022-11-16T02:47:33.441Z,99612.38
2022-11-16T02:50:23.911Z,99603.98
2022-11-16T02:53:13.532Z,99608.13
2022-11-16T02:56:01.286Z,99606.08
2022-11-16T02:58:48.728Z,99606.58
2022-11-16T03:01:44.823Z,99599.95
2022-11-16T03:04:41.874Z,99597.40
2022-11-16T03:07:39.037Z,99596.00
2022-11-16T03:10:49.795Z,99592.35
2022-11-16T03:13:39.914Z,99597.75
2022-11-16T03:16:44.969Z,99601.13
2022-11-16T03:19:44.017Z,99596.34
2022-11-16T03:22:46.159Z,99598.33
2022-11-16T03:25:49.019Z,99591.30
2022-11-16T03:28:52.342Z,99590.52
2022-11-16T03:31:51.927Z,99587.44
2022-11-16T03:34:43.111Z,99588.38
2022-11-16T03:37:32.111Z,99589.52
2022-11-16T03:40:23.171Z,99594.08
2022-11-16T03:43:11.606Z,99594.28
2022-11-16T03:46:01.040Z,99598.28
2022-11-16T03:48:48.593Z,99594.90
2022-11-16T03:51:42.968Z,99595.98
2022-11-16T03:54:30.807Z,99600.13
2022-11-16T03:57:18.746Z,99599.22
2022-11-16T04:00:12.737Z,99598.59
2022-11-16T04:03:03.214Z,99597.36
2022-11-16T04:06:09.061Z,99601.73
2022-11-16T04:09:15.238Z,99603.36
2022-11-16T04:12:21.437Z,99604.13
2022-11-16T04:15:29.077Z,99604.20
2022-11-16T04:18:35.735Z,99606.91
2022-11-16T04:21:59.259Z,99609.30
2022-11-16T04:24:56.024Z,99604.17
2022-11-16T04:28:03.257Z,99603.05
2022-11-16T04:31:15.578Z,99598.47
2022-11-16T04:34:25.790Z,99596.20
2022-11-16T04:37:37.678Z,99596.45
2022-11-16T04:40:30.798Z,99588.23
2022-11-16T04:43:32.077Z,99589.02
2022-11-16T04:46:38.297Z,99588.32
2022-11-16T04:49:26.735Z,99593.42
2022-11-16T04:52:15.986Z,99597.08
2022-11-16T04:55:04.614Z,99594.14
2022-11-16T04:57:53.422Z,99589.20
2022-11-16T05:00:41.727Z,99584.84
2022-11-16T05:03:29.857Z,99583.86
2022-11-16T05:06:17.343Z,99584.17
2022-11-16T05:09:05.560Z,99585.05
2022-11-16T05:11:53.828Z,99583.66
2022-11-16T05:14:42.929Z,99577.81
2022-11-16T05:17:30.595Z,99580.73
2022-11-16T05:20:45.517Z,99583.36
2022-11-16T05:23:52.139Z,99589.80
2022-11-16T05:26:41.500Z,99582.50
2022-11-16T05:29:29.104Z,99584.80
2022-11-16T05:32:18.725Z,99586.23
2022-11-16T05:35:07.044Z,99590.19
2022-11-16T05:37:54.704Z,99594.05
2022-11-16T05:40:43.082Z,99593.23
2022-11-16T05:43:31.376Z,99593.90
2022-11-16T05:46:33.746Z,99595.17
2022-11-16T05:49:22.907Z,99595.83
2022-11-16T05:52:10.708Z,99601.56
2022-11-16T05:54:58.850Z,99600.06
2022-11-16T05:57:47.928Z,99604.05
2022-11-16T06:00:36.115Z,99604.50
2022-11-16T06:03:24.379Z,99612.12
2022-11-16T06:06:12.282Z,99606.73
2022-11-16T06:09:00.002Z,99610.45
2022-11-16T06:11:47.953Z,99611.98
2022-11-16T06:14:35.428Z,99616.73
2022-11-16T06:17:22.743Z,99616.54
2022-11-16T06:20:11.396Z,99615.31
2022-11-16T06:22:58.956Z,99614.45
2022-11-16T06:25:53.605Z,99614.55
2022-11-16T06:28:41.507Z,99616.75
2022-11-16T06:31:30.755Z,99619.60
2022-11-16T06:34:19.246Z,99613.02
2022-11-16T06:37:06.685Z,99613.95
2022-11-16T06:39:54.729Z,99617.92
2022-11-16T06:42:43.528Z,99617.57
2022-11-16T06:45:31.917Z,99618.91
2022-11-16T06:48:21.651Z,99610.98
2022-11-16T06:51:09.929Z,99613.05
2022-11-16T06:53:57.826Z,99621.19
2022-11-16T06:56:45.501Z,99619.45
2022-11-16T06:59:32.801Z,99623.02
2022-11-16T07:02:21.495Z,99622.64
2022-11-16T07:05:09.664Z,99619.81
2022-11-16T07:07:58.107Z,99616.98
2022-11-16T07:10:46.044Z,99621.86
2022-11-16T07:13:36.487Z,99618.38
2022-11-16T07:16:24.480Z,99615.96
2022-11-16T07:19:16.250Z,99617.59
2022-11-16T07:22:04.400Z,99613.98
2022-11-16T07:24:52.453Z,99618.14
2022-11-16T07:27:40.553Z,99619.55
2022-11-16T07:30:28.224Z,99623.33
2022-11-16T07:33:21.818Z,99621.35
2022-11-16T07:36:41.403Z,99622.54
2022-11-16T07:39:29.952Z,99624.81
2022-11-16T07:42:18.370Z,99624.61
2022-11-16T07:45:12.977Z,99620.48
2022-11-16T07:48:05.071Z,99623.05
2022-11-16T07:51:15.929Z,99625.45
2022-11-16T07:54:08.431Z,99625.96
2022-11-16T07:56:55.969Z,99632.51
2022-11-16T07:59:44.145Z,99628.91
2022-11-16T08:02:34.674Z,99634.18
2022-11-16T08:05:22.641Z,99632.02
2022-11-16T08:08:12.217Z,99633.73
2022-11-16T08:11:03.790Z,99640.53
2022-11-16T08:13:51.687Z,99635.30
2022-11-16T08:16:39.803Z,99640.42
2022-11-16T08:19:30.816Z,99639.35
2022-11-16T08:22:18.734Z,99641.88
2022-11-16T08:25:07.487Z,99642.03
2022-11-16T08:27:56.195Z,99646.99
2022-11-16T08:30:45.579Z,99642.23
2022-11-16T08:33:34.856Z,99639.89
2022-11-16T08:36:23.329Z,99643.33
2022-11-16T08:39:11.279Z,99647.34
2022-11-16T08:42:01.376Z,99644.33
2022-11-16T08:44:49.475Z,99643.27
2022-11-16T08:47:39.504Z,99642.23
2022-11-16T08:50:28.342Z,99645.41
2022-11-16T08:53:16.518Z,99645.33
2022-11-16T08:56:12.519Z,99651.40
2022-11-16T08:59:01.351Z,99647.67
2022-11-16T09:01:50.294Z,99647.15
2022-11-16T09:04:37.931Z,99650.91
2022-11-16T09:07:25.526Z,99649.30
2022-11-16T09:10:14.163Z,99651.52
2022-11-16T09:13:01.673Z,99655.76
2022-11-16T09:15:56.060Z,99651.95
2022-11-16T09:18:46.403Z,99652.02
2022-11-16T09:21:36.177Z,99652.08
2022-11-16T09:24:23.766Z,99647.27
2022-11-16T09:27:11.550Z,99645.23
2022-11-16T09:29:59.240Z,99646.10
2022-11-16T09:32:46.839Z,99645.00
2022-11-16T09:35:35.302Z,99647.51
2022-11-16T09:38:39.919Z,99642.39
2022-11-16T09:42:19.557Z,99639.29
2022-11-16T09:45:22.969Z,99644.34
2022-11-16T09:48:14.808Z,99640.12
2022-11-16T09:51:08.297Z,99640.90
2022-11-16T09:54:03.582Z,99640.69
2022-11-16T09:56:57.421Z,99637.71
2022-11-16T09:59:52.010Z,99638.30
2022-11-16T10:02:58.184Z,99636.02
2022-11-16T10:06:08.219Z,99631.70
2022-11-16T10:08:58.595Z,99634.48
2022-11-16T10:12:04.262Z,99630.35
2022-11-16T10:15:31.649Z,99629.06
2022-11-16T10:18:39.815Z,99625.91
2022-11-16T10:22:06.314Z,99630.20
2022-11-16T10:25:09.029Z,99626.35
2022-11-16T10:28:46.910Z,99622.98
2022-11-16T10:31:54.201Z,99628.65
2022-11-16T10:34:54.503Z,99634.05
2022-11-16T10:37:48.979Z,99634.38
2022-11-16T10:40:38.575Z,99630.14
2022-11-16T10:43:30.216Z,99631.32
2022-11-16T10:46:23.803Z,99629.79
2022-11-16T10:49:27.288Z,99623.19
2022-11-16T10:52:14.983Z,99628.73
2022-11-16T10:55:02.963Z,99629.89
2022-11-16T10:58:02.343Z,99626.27
2022-11-16T11:00:53.637Z,99623.29
2022-11-16T11:03:41.394Z,99621.31
2022-11-16T11:06:29.338Z,99617.03
2022-11-16T11:09:35.782Z,99615.47
2022-11-16T11:12:38.301Z,99619.33
2022-11-16T11:15:29.444Z,99610.66
2022-11-16T11:18:29.864Z,99610.42
2022-11-16T11:21:20.991Z,99612.28
2022-11-16T11:24:43.497Z,99609.89
2022-11-16T11:27:33.823Z,99611.73
2022-11-16T11:30:22.708Z,99608.86
2022-11-16T11:33:12.662Z,99610.46
2022-11-16T11:36:30.832Z,99613.95
2022-11-16T11:39:21.567Z,99608.06
2022-11-16T11:42:12.451Z,99611.61
2022-11-16T11:45:08.717Z,99612.08
2022-11-16T11:48:12.220Z,99614.16
2022-11-16T11:51:12.165Z,99612.71
2022-11-16T11:54:02.774Z,99612.55
2022-11-16T11:56:50.721Z,99615.85
2022-11-16T11:59:38.666Z,99616.54
2022-11-16T12:02:47.817Z,99616.81
2022-11-16T12:06:19.240Z,99614.65
2022-11-16T12:09:31.589Z,99618.63
2022-11-16T12:13:12.563Z,99617.02
2022-11-16T12:16:11.409Z,99617.44
2022-11-16T12:19:32.977Z,99615.50
2022-11-16T12:22:29.332Z,99612.30
2022-11-16T12:25:26.766Z,99606.73
2022-11-16T12:28:29.123Z,99607.89
2022-11-16T12:31:39.336Z,99606.40
2022-11-16T12:34:53.181Z,99606.10
2022-11-16T12:37:44.394Z,99601.38
2022-11-16T12:41:00.328Z,99603.64
2022-11-16T12:43:56.882Z,99606.79
2022-11-16T12:47:35.550Z,99611.33
2022-11-16T12:50:35.250Z,99607.42
2022-11-16T12:53:51.400Z,99609.88
2022-11-16T12:57:04.074Z,99609.08
2022-11-16T13:00:06.924Z,99609.55
2022-11-16T13:03:52.983Z,99614.83
2022-11-16T13:06:47.206Z,99609.09
2022-11-16T13:09:41.052Z,99612.52
2022-11-16T13:12:30.910Z,99611.19
2022-11-16T13:15:22.915Z,99608.91
2022-11-16T13:18:20.534Z,99615.63
2022-11-16T13:21:20.809Z,99613.81
2022-11-16T13:24:46.840Z,99611.71
2022-11-16T13:28:14.568Z,99609.27
2022-11-16T13:31:11.797Z,99608.35
2022-11-16T13:34:05.529Z,99609.80
2022-11-16T13:36:53.431Z,99607.16
2022-11-16T13:39:50.565Z,99604.88
2022-11-16T13:43:01.111Z,99602.95
2022-11-16T13:46:00.137Z,99606.10
2022-11-16T13:48:48.366Z,99600.45
2022-11-16T13:51:36.255Z,99605.20
2022-11-16T13:54:45.199Z,99605.04
2022-11-16T13:57:34.744Z,99602.67
2022-11-16T14:00:36.454Z,99606.97
2022-11-16T14:03:30.256Z,99605.96
2022-11-16T14:06:23.873Z,99606.46
2022-11-16T14:09:49.282Z,99607.20
2022-11-16T14:12:53.339Z,99607.95
2022-11-16T14:15:40.715Z,99607.77
2022-11-16T14:18:37.135Z,99606.18
2022-11-16T14:22:08.331Z,99604.64
2022-11-16T14:25:13.666Z,99601.50
2022-11-16T14:28:24.370Z,99601.25
2022-11-16T14:31:47.278Z,99601.92
2022-11-16T14:34:48.201Z,99598.62
2022-11-16T14:37:40.323Z,99596.86
2022-11-16T14:40:28.329Z,99594.58
2022-11-16T14:43:30.492Z,99595.23
2022-11-16T14:46:26.182Z,99598.42
2022-11-16T14:49:17.616Z,99598.16
2022-11-16T14:52:08.339Z,99599.36
2022-11-16T14:55:04.979Z,99600.27
2022-11-16T14:58:25.570Z,99605.52
2022-11-16T15:01:20.943Z,99607.91
2022-11-16T15:04:11.257Z,99604.97
2022-11-16T15:07:03.923Z,99603.30
2022-11-16T15:09:56.841Z,99607.20
2022-11-16T15:12:51.549Z,99601.71
2022-11-16T15:15:39.246Z,99598.23
2022-11-16T15:18:26.722Z,99603.77
2022-11-16T15:21:23.612Z,99602.77
2022-11-16T15:24:30.621Z,99602.91
2022-11-16T15:27:45.674Z,99604.27
2022-11-16T15:30:37.546Z,99598.09
2022-11-16T15:33:35.913Z,99601.84
2022-11-16T15:36:26.836Z,99601.09
2022-11-16T15:39:32.720Z,99601.47
2022-11-16T15:42:23.402Z,99597.60
2022-11-16T15:45:23.547Z,99594.29
2022-11-16T15:48:22.845Z,99596.95
2022-11-16T15:51:17.793Z,99595.10
2022-11-16T15:54:30.685Z,99590.63
2022-11-16T15:57:23.352Z,99592.70
2022-11-16T16:00:22.944Z,99594.63
2022-11-16T16:03:27.537Z,99593.81
2022-11-16T16:06:45.340Z,99599.45
2022-11-16T16:09:40.981Z,99592.23
2022-11-16T16:12:29.469Z,99591.75
2022-11-16T16:15:30.114Z,99593.34
2022-11-16T16:18:39.988Z,99587.02
2022-11-16T16:21:48.343Z,99590.59
2022-11-16T16:24:47.560Z,99593.15
2022-11-16T16:27:41.308Z,99600.84
2022-11-16T16:30:31.088Z,99591.92
2022-11-16T16:33:22.044Z,99592.52
2022-11-16T16:36:11.815Z,99590.89
2022-11-16T16:38:59.094Z,99593.52
2022-11-16T16:41:46.739Z,99595.85
2022-11-16T16:44:34.750Z,99592.81
2022-11-16T16:47:22.425Z,99597.20
2022-11-16T16:50:10.255Z,99592.20
2022-11-16T16:52:58.109Z,99590.64
2022-11-16T16:55:49.024Z,99598.30
2022-11-16T16:58:41.755Z,99600.69
2022-11-16T17:01:29.690Z,99600.88
2022-11-16T17:04:24.404Z,99599.92
2022-11-16T17:07:12.710Z,99600.39
2022-11-16T17:10:03.128Z,99599.27
2022-11-16T17:12:54.380Z,99598.23
2022-11-16T17:15:52.807Z,99598.02
2022-11-16T17:18:46.668Z,99595.23
2022-11-16T17:21:34.800Z,99599.91
2022-11-16T17:24:22.385Z,99600.50
2022-11-16T17:27:10.380Z,99601.08
2022-11-16T17:29:58.495Z,99603.86
2022-11-16T17:32:46.271Z,99607.23
2022-11-16T17:35:34.274Z,99609.69
2022-11-16T17:38:22.270Z,99607.11
2022-11-16T17:41:18.091Z,99602.88
2022-11-16T17:44:06.414Z,99598.98
2022-11-16T17:46:54.046Z,99595.83
2022-11-16T17:49:41.713Z,99603.61
2022-11-16T17:52:29.697Z,99607.14
2022-11-16T17:55:18.980Z,99606.55
2022-11-16T17:58:11.126Z,99612.39
2022-11-16T18:00:59.117Z,99616.16
2022-11-16T18:03:48.312Z,99617.07
2022-11-16T18:06:36.412Z,99624.32
2022-11-16T18:09:24.760Z,99622.02
2022-11-16T18:12:12.311Z,99620.86
2022-11-16T18:15:26.286Z,99624.98
2022-11-16T18:18:07.388Z,99624.48
2022-11-16T18:20:55.076Z,99627.98
2022-11-16T18:23:43.079Z,99629.48
2022-11-16T18:26:31.372Z,99627.88
2022-11-16T18:29:19.543Z,99630.79
2022-11-16T18:32:07.347Z,99627.19
2022-11-16T18:34:55.042Z,99629.55
2022-11-16T18:37:43.099Z,99624.10
2022-11-16T18:40:30.772Z,99628.98
2022-11-16T18:43:18.701Z,99623.64
2022-11-16T18:46:07.339Z,99627.02
2022-11-16T18:48:56.186Z,99622.96
2022-11-16T18:51:44.068Z,99624.55
2022-11-16T18:54:31.455Z,99630.46
2022-11-16T18:57:18.926Z,99629.95
2022-11-16T19:00:07.810Z,99631.64
2022-11-16T19:02:55.370Z,99634.45
2022-11-16T19:05:44.288Z,99630.16
2022-11-16T19:08:33.402Z,99633.60
2022-11-16T19:11:22.763Z,99627.42
2022-11-16T19:14:10.899Z,99630.73
2022-11-16T19:17:05.367Z,99624.98
2022-11-16T19:19:53.880Z,99625.33
2022-11-16T19:22:42.019Z,99622.38
2022-11-16T19:25:29.976Z,99627.71
2022-11-16T19:28:17.931Z,99629.95
2022-11-16T19:31:19.447Z,99632.36
2022-11-16T19:34:12.283Z,99632.19
2022-11-16T19:37:00.084Z,99626.20
2022-11-16T19:39:47.944Z,99626.39
2022-11-16T19:42:36.100Z,99626.35
2022-11-16T19:45:25.018Z,99622.66
2022-11-16T19:48:13.470Z,99620.41
2022-11-16T19:51:09.807Z,99617.90
2022-11-16T19:54:02.126Z,99615.99
2022-11-16T19:56:54.871Z,99618.23
2022-11-16T19:59:43.925Z,99616.20
2022-11-16T20:02:32.624Z,99618.45
2022-11-16T20:05:21.697Z,99619.66
2022-11-16T20:08:11.171Z,99619.41
2022-11-16T20:10:59.334Z,99623.58
2022-11-16T20:13:49.459Z,99625.19
2022-11-16T20:16:40.625Z,99629.26
2022-11-16T20:19:28.874Z,99630.98
2022-11-16T20:22:17.076Z,99635.94
2022-11-16T20:25:05.550Z,99638.70
2022-11-16T20:27:54.327Z,99637.39
2022-11-16T20:30:49.739Z,99644.20
2022-11-16T20:33:38.541Z,99642.41
2022-11-16T20:36:29.664Z,99643.09
2022-11-16T20:39:20.452Z,99645.16
2022-11-16T20:42:07.820Z,99649.58
2022-11-16T20:44:55.572Z,99646.04
2022-11-16T20:47:43.709Z,99651.69
2022-11-16T20:50:31.476Z,99656.11
2022-11-16T20:53:20.176Z,99649.95
2022-11-16T20:56:10.581Z,99647.45
2022-11-16T20:58:58.758Z,99656.12
2022-11-16T21:01:52.464Z,99659.16
2022-11-16T21:04:40.504Z,99655.77
2022-11-16T21:07:29.449Z,99654.24
2022-11-16T21:10:19.940Z,99654.77
2022-11-16T21:13:34.674Z,99654.15
2022-11-16T21:16:22.840Z,99651.77
2022-11-16T21:19:12.521Z,99652.97
2022-11-16T21:22:00.429Z,99660.61
2022-11-16T21:24:48.331Z,99659.29
2022-11-16T21:27:35.764Z,99656.40
2022-11-16T21:30:23.237Z,99656.30
2022-11-16T21:33:10.957Z,99652.69
2022-11-16T21:36:14.400Z,99649.97
2022-11-16T21:39:02.134Z,99649.34
2022-11-16T21:41:49.728Z,99643.48
2022-11-16T21:44:43.780Z,99637.39
2022-11-16T21:47:31.403Z,99634.86
2022-11-16T21:50:31.683Z,99634.77
2022-11-16T21:53:19.518Z,99634.38
2022-11-16T21:56:12.893Z,99638.04
2022-11-16T21:59:00.442Z,99644.23
2022-11-16T22:02:00.169Z,99640.34
2022-11-16T22:05:06.268Z,99643.76
2022-11-16T22:07:53.852Z,99649.13
2022-11-16T22:10:41.252Z,99651.02
2022-11-16T22:13:28.897Z,99650.34
2022-11-16T22:16:18.866Z,99646.89
2022-11-16T22:19:06.197Z,99646.14
2022-11-16T22:21:53.944Z,99646.01
2022-11-16T22:24:41.647Z,99651.75
2022-11-16T22:27:29.462Z,99649.88
2022-11-16T22:30:17.068Z,99647.33
2022-11-16T22:33:04.606Z,99648.69
2022-11-16T22:35:52.547Z,99651.40
2022-11-16T22:38:40.437Z,99649.91
2022-11-16T22:41:27.845Z,99653.17
2022-11-16T22:44:15.402Z,99651.38
2022-11-16T22:47:04.550Z,99653.23
2022-11-16T22:49:54.695Z,99648.11
2022-11-16T22:52:42.594Z,99651.01
2022-11-16T22:55:30.877Z,99653.92
2022-11-16T22:58:18.535Z,99648.79
2022-11-16T23:01:08.863Z,99646.38
2022-11-16T23:03:56.595Z,99643.23
2022-11-16T23:06:43.873Z,99638.13
2022-11-16T23:09:32.690Z,99635.98
2022-11-16T23:12:38.806Z,99633.56
2022-11-16T23:15:45.144Z,99637.70
2022-11-16T23:18:32.830Z,99640.54
2022-11-16T23:21:39.760Z,99634.45
2022-11-16T23:24:49.272Z,99638.27
2022-11-16T23:27:44.919Z,99638.45
2022-11-16T23:30:33.849Z,99636.52
2022-11-16T23:33:41.421Z,99636.82
2022-11-16T23:36:29.028Z,99640.75
2022-11-16T23:39:16.744Z,99642.36
2022-11-16T23:42:23.550Z,99640.95
2022-11-16T23:45:11.495Z,99638.57
2022-11-16T23:47:59.495Z,99635.07
2022-11-16T23:50:47.321Z,99632.24
2022-11-16T23:53:35.169Z,99635.96
2022-11-16T23:56:24.022Z,99634.33
2022-11-16T23:59:11.771Z,99631.33
